Aspley Guise, United Kingdom
Current Conditions -  °F | °C
As of 8:20 AM on Sunday 21 Dec 2014 (Local Time) from EGGW Reporting Station
Broken Clouds Broken Clouds  
Wind Chill: 37°   Ceiling: 600
Heat Index: 43°   Visibility: 5mi
Dew Point: 43°   Wind: 12mph
Humidity: 100%   Direction: 220°SW
Pressure: 30.3"   Gusts: NA
Location:  51.98°N, 0.76°W
Report Text: EGGW 210820Z 22010KT 8000 BKN006 06/06 Q1026
Loading
Personal Weather Stations






























Interactive Weather Map New forecast layout! Learn more

10-Day Weather Forecast

Advertisements
Track Severe Weather on mobile